createdAt,value
2023-02-07T00:01:38.950Z,142.20
2023-02-07T00:04:07.232Z,136.10
2023-02-07T00:06:38.998Z,123.90
2023-02-07T00:09:09.066Z,116.10
2023-02-07T00:11:41.106Z,124.20
2023-02-07T00:14:11.920Z,119.60
2023-02-07T00:16:41.698Z,106.60
2023-02-07T00:19:10.250Z,113.30
2023-02-07T00:21:38.616Z,112.40
2023-02-07T00:24:07.802Z,108.40
2023-02-07T00:26:36.282Z,107.80
2023-02-07T00:29:04.811Z,105.90
2023-02-07T00:31:35.371Z,113.70
2023-02-07T00:34:06.307Z,112.60
2023-02-07T00:36:36.070Z,96.90
2023-02-07T00:39:14.175Z,93.50
2023-02-07T00:41:43.717Z,93.60
2023-02-07T00:44:12.535Z,104.20
2023-02-07T00:46:40.754Z,98.90
2023-02-07T00:49:09.002Z,95.50
2023-02-07T00:51:37.483Z,93.30
2023-02-07T00:54:06.603Z,103.90
2023-02-07T00:56:35.208Z,92.90
2023-02-07T00:59:03.737Z,104.20
2023-02-07T01:01:32.104Z,88.20
2023-02-07T01:04:00.760Z,93.30
2023-02-07T01:06:33.619Z,94.70
2023-02-07T01:09:04.268Z,93.10
2023-02-07T01:11:32.719Z,97.50
2023-02-07T01:14:02.017Z,100.20
2023-02-07T01:16:33.228Z,94.00
2023-02-07T01:19:05.373Z,103.60
2023-02-07T01:21:33.625Z,98.30
2023-02-07T01:24:01.931Z,104.80
2023-02-07T01:26:30.282Z,96.00
2023-02-07T01:28:58.579Z,96.90
2023-02-07T01:31:27.088Z,94.20
2023-02-07T01:33:58.505Z,93.00
2023-02-07T01:36:29.403Z,88.40
2023-02-07T01:38:57.825Z,86.10
2023-02-07T01:41:27.942Z,92.60
2023-02-07T01:44:07.851Z,83.00
2023-02-07T01:46:36.693Z,77.30
2023-02-07T01:49:10.447Z,84.90
2023-02-07T01:51:42.803Z,81.40
2023-02-07T01:54:13.775Z,77.90
2023-02-07T01:56:48.753Z,74.40
2023-02-07T02:01:47.100Z,72.60
2023-02-07T02:04:15.652Z,73.20
2023-02-07T02:06:44.266Z,74.90
2023-02-07T02:09:16.023Z,72.90
2023-02-07T02:12:22.805Z,79.30
2023-02-07T02:15:28.701Z,72.70
2023-02-07T02:18:15.765Z,82.70
2023-02-07T02:21:05.598Z,82.10
2023-02-07T02:24:21.603Z,87.30
2023-02-07T02:27:17.245Z,65.30
2023-02-07T02:29:48.333Z,81.00
2023-02-07T02:32:35.260Z,83.80
2023-02-07T02:35:12.720Z,73.90
2023-02-07T02:37:54.344Z,75.30
2023-02-07T02:40:53.003Z,75.30
2023-02-07T02:43:33.918Z,78.70
2023-02-07T02:46:16.093Z,82.60
2023-02-07T02:48:45.523Z,79.20
2023-02-07T02:51:14.074Z,82.50
2023-02-07T02:54:27.240Z,88.60
2023-02-07T02:57:06.132Z,85.20
2023-02-07T02:59:43.521Z,86.90
2023-02-07T03:02:22.631Z,88.70
2023-02-07T03:05:03.598Z,100.60
2023-02-07T03:07:44.435Z,90.60
2023-02-07T03:10:31.296Z,103.00
2023-02-07T03:13:14.943Z,99.50
2023-02-07T03:16:15.330Z,106.80
2023-02-07T03:18:52.604Z,101.90
2023-02-07T03:21:41.879Z,110.90
2023-02-07T03:24:35.374Z,110.50
2023-02-07T03:27:09.336Z,112.10
2023-02-07T03:29:40.110Z,118.10
2023-02-07T03:32:11.195Z,119.10
2023-02-07T03:35:06.680Z,109.40
2023-02-07T03:37:41.095Z,111.20
2023-02-07T03:40:11.160Z,112.90
2023-02-07T03:42:46.686Z,114.40
2023-02-07T03:45:19.576Z,114.40
2023-02-07T03:47:48.535Z,119.80
2023-02-07T03:50:18.036Z,124.30
2023-02-07T03:52:46.392Z,119.70
2023-02-07T03:55:14.894Z,117.70
2023-02-07T03:57:43.429Z,115.50
2023-02-07T04:00:12.411Z,120.30
2023-02-07T04:02:41.446Z,120.80
2023-02-07T04:05:09.935Z,115.90
2023-02-07T04:07:38.407Z,153.20
2023-02-07T04:10:07.057Z,154.80
2023-02-07T04:12:35.576Z,150.10
2023-02-07T04:15:05.038Z,129.50
2023-02-07T04:17:33.551Z,140.50
2023-02-07T04:20:01.950Z,105.30
2023-02-07T04:22:30.367Z,97.80
2023-02-07T04:24:58.974Z,100.80
2023-02-07T04:27:27.323Z,100.50
2023-02-07T04:29:56.477Z,106.10
2023-02-07T04:32:24.820Z,87.10
2023-02-07T04:34:53.240Z,93.70
2023-02-07T04:37:21.574Z,88.20
2023-02-07T04:39:49.879Z,83.60
2023-02-07T04:42:18.380Z,89.50
2023-02-07T04:44:46.758Z,82.00
2023-02-07T04:47:15.245Z,89.20
2023-02-07T04:49:43.652Z,90.80
2023-02-07T04:52:12.061Z,79.80
2023-02-07T04:54:40.458Z,81.00
2023-02-07T04:57:08.945Z,77.50
2023-02-07T04:59:37.341Z,69.80
2023-02-07T05:02:05.634Z,75.90
2023-02-07T05:04:34.193Z,59.80
2023-02-07T05:07:02.479Z,71.50
2023-02-07T05:09:30.876Z,77.20
2023-02-07T05:11:59.316Z,65.50
2023-02-07T05:14:27.649Z,69.40
2023-02-07T05:16:56.023Z,70.70
2023-02-07T05:19:24.394Z,64.50
2023-02-07T05:21:52.929Z,63.90
2023-02-07T05:24:21.216Z,67.30
2023-02-07T05:26:49.584Z,65.80
2023-02-07T05:29:17.851Z,66.00
2023-02-07T05:32:06.856Z,66.20
2023-02-07T05:34:35.815Z,66.60
2023-02-07T05:37:04.142Z,69.50
2023-02-07T05:39:32.462Z,84.90
2023-02-07T05:42:00.837Z,77.20
2023-02-07T05:44:29.206Z,93.30
2023-02-07T05:46:57.576Z,91.70
2023-02-07T05:49:26.178Z,79.40
2023-02-07T05:51:55.841Z,89.80
2023-02-07T05:54:24.505Z,101.40
2023-02-07T05:56:53.080Z,99.00
2023-02-07T05:59:21.592Z,95.00
2023-02-07T06:01:50.076Z,79.90
2023-02-07T06:04:18.604Z,74.00
2023-02-07T06:06:47.165Z,86.40
2023-02-07T06:09:15.569Z,80.50
2023-02-07T06:11:44.129Z,72.50
2023-02-07T06:14:12.509Z,74.40
2023-02-07T06:16:40.977Z,84.50
2023-02-07T06:19:11.649Z,82.70
2023-02-07T06:21:46.410Z,115.60
2023-02-07T06:24:16.702Z,92.00
2023-02-07T06:26:46.959Z,84.60
2023-02-07T06:29:18.682Z,79.10
2023-02-07T06:31:47.262Z,90.60
2023-02-07T06:34:15.898Z,81.00
2023-02-07T06:36:44.448Z,83.70
2023-02-07T06:39:12.931Z,70.60
2023-02-07T06:41:41.348Z,67.50
2023-02-07T06:44:09.698Z,64.10
2023-02-07T06:46:45.421Z,69.50
2023-02-07T06:49:13.840Z,67.50
2023-02-07T06:51:42.103Z,67.60
2023-02-07T06:54:13.225Z,67.80
2023-02-07T06:56:43.493Z,55.50
2023-02-07T06:59:13.845Z,64.10
2023-02-07T07:01:42.606Z,63.30
2023-02-07T07:04:10.923Z,54.20
2023-02-07T07:06:39.264Z,62.30
2023-02-07T07:09:07.599Z,63.50
2023-02-07T07:11:42.952Z,59.70
2023-02-07T07:14:12.275Z,64.70
2023-02-07T07:16:41.105Z,66.60
2023-02-07T07:19:09.501Z,67.40
2023-02-07T07:21:37.866Z,65.80
2023-02-07T07:24:06.809Z,66.90
2023-02-07T07:26:48.386Z,65.50
2023-02-07T07:29:19.485Z,72.30
2023-02-07T07:31:47.891Z,72.50
2023-02-07T07:34:16.326Z,66.80
2023-02-07T07:36:44.945Z,74.80
2023-02-07T07:39:14.668Z,65.50
2023-02-07T07:41:43.354Z,58.90
2023-02-07T07:44:13.320Z,67.10
2023-02-07T07:46:41.830Z,62.10
2023-02-07T07:49:10.182Z,67.50
2023-02-07T07:51:38.686Z,66.10
2023-02-07T07:54:07.068Z,73.00
2023-02-07T07:56:36.356Z,69.40
2023-02-07T07:59:05.931Z,73.10
2023-02-07T08:01:39.765Z,76.90
2023-02-07T08:04:11.036Z,71.80
2023-02-07T08:06:39.439Z,72.10
2023-02-07T08:09:07.904Z,79.80
2023-02-07T08:11:38.408Z,78.60
2023-02-07T08:14:06.806Z,68.50
2023-02-07T08:16:35.366Z,72.50
2023-02-07T08:19:05.235Z,77.80
2023-02-07T08:21:33.755Z,66.90
2023-02-07T08:24:02.178Z,69.50
2023-02-07T08:26:30.679Z,69.70
2023-02-07T08:28:59.086Z,75.90
2023-02-07T08:31:27.699Z,71.30
2023-02-07T08:33:56.346Z,74.20
2023-02-07T08:36:24.828Z,75.40
2023-02-07T08:38:53.263Z,73.70
2023-02-07T08:41:21.765Z,68.50
2023-02-07T08:43:50.296Z,64.90
2023-02-07T08:46:18.960Z,63.70
2023-02-07T08:48:47.529Z,58.20
2023-02-07T08:51:15.959Z,67.80
2023-02-07T08:53:44.499Z,78.40
2023-02-07T08:56:13.066Z,72.50
2023-02-07T08:58:48.954Z,67.60
2023-02-07T09:01:21.128Z,68.90
2023-02-07T09:03:49.618Z,64.80
2023-02-07T09:06:18.315Z,65.70
2023-02-07T09:08:46.814Z,59.00
2023-02-07T09:11:16.636Z,62.60
2023-02-07T09:13:46.602Z,73.40
2023-02-07T09:16:15.785Z,60.20
2023-02-07T09:18:44.679Z,77.30
2023-02-07T09:21:18.643Z,69.00
2023-02-07T09:23:51.390Z,74.00
2023-02-07T09:26:24.478Z,84.30
2023-02-07T09:28:53.134Z,71.10
2023-02-07T09:31:24.727Z,70.60
2023-02-07T09:33:53.352Z,72.40
2023-02-07T09:36:28.721Z,65.70
2023-02-07T09:38:59.050Z,68.10
2023-02-07T09:41:36.743Z,69.80
2023-02-07T09:44:16.561Z,69.00
2023-02-07T09:47:11.897Z,65.10
2023-02-07T09:49:43.346Z,55.30
2023-02-07T09:52:18.010Z,64.50
2023-02-07T09:54:50.790Z,63.50
2023-02-07T09:57:46.834Z,69.70
2023-02-07T10:00:28.595Z,73.60
2023-02-07T10:03:20.042Z,61.90
2023-02-07T10:06:03.666Z,66.80
2023-02-07T10:08:40.811Z,78.10
2023-02-07T10:11:10.679Z,76.70
2023-02-07T10:13:54.313Z,74.50
2023-02-07T10:16:49.219Z,85.10
2023-02-07T10:19:30.051Z,78.20
2023-02-07T10:22:04.774Z,70.20
2023-02-07T10:24:52.759Z,76.80
2023-02-07T10:27:31.269Z,73.10
2023-02-07T10:30:21.743Z,81.40
2023-02-07T10:32:55.716Z,70.40
2023-02-07T10:35:34.966Z,66.00
2023-02-07T10:38:04.423Z,67.50
2023-02-07T10:40:56.765Z,71.90
2023-02-07T10:43:25.448Z,72.50
2023-02-07T10:46:05.525Z,68.80
2023-02-07T10:48:35.471Z,70.90
2023-02-07T10:51:14.109Z,71.10
2023-02-07T10:54:02.641Z,71.20
2023-02-07T10:56:37.714Z,80.30
2023-02-07T10:59:07.037Z,66.90
2023-02-07T11:01:36.038Z,74.10
2023-02-07T11:04:34.591Z,72.00
2023-02-07T11:07:10.167Z,69.30
2023-02-07T11:09:38.994Z,77.70
2023-02-07T11:12:22.170Z,69.80
2023-02-07T11:15:06.513Z,76.20
2023-02-07T11:17:35.435Z,88.60
2023-02-07T11:20:06.744Z,80.00
2023-02-07T11:22:36.917Z,69.70
2023-02-07T11:25:10.137Z,64.10
2023-02-07T11:27:43.426Z,63.40
2023-02-07T11:30:19.089Z,70.90
2023-02-07T11:33:07.658Z,65.50
2023-02-07T11:35:36.579Z,63.00
2023-02-07T11:38:15.030Z,74.60
2023-02-07T11:40:48.655Z,70.00
2023-02-07T11:43:20.166Z,70.60
2023-02-07T11:45:52.280Z,68.80
2023-02-07T11:48:26.419Z,71.10
2023-02-07T11:50:57.667Z,67.00
2023-02-07T11:53:35.639Z,66.80
2023-02-07T11:56:05.615Z,64.20
2023-02-07T11:58:46.620Z,62.60
2023-02-07T12:01:19.018Z,61.80
2023-02-07T12:03:53.066Z,69.80
2023-02-07T12:06:26.608Z,74.10
2023-02-07T12:08:55.943Z,71.10
2023-02-07T12:11:31.439Z,73.90
2023-02-07T12:14:15.722Z,61.40
2023-02-07T12:16:54.972Z,64.60
2023-02-07T12:19:29.632Z,75.20
2023-02-07T12:22:23.969Z,64.50
2023-02-07T12:25:03.232Z,73.00
2023-02-07T12:27:43.610Z,67.70
2023-02-07T12:30:45.527Z,67.50
2023-02-07T12:33:41.547Z,70.50
2023-02-07T12:36:26.882Z,72.10
2023-02-07T12:39:06.182Z,80.80
2023-02-07T12:41:47.626Z,75.40
2023-02-07T12:44:34.814Z,87.80
2023-02-07T12:47:37.666Z,93.50
2023-02-07T12:50:21.323Z,105.90
2023-02-07T12:53:20.026Z,81.80
2023-02-07T12:56:19.446Z,92.30
2023-02-07T12:59:17.445Z,80.70
2023-02-07T13:02:01.312Z,83.60
2023-02-07T13:04:50.060Z,83.10
2023-02-07T13:07:44.764Z,79.50
2023-02-07T13:10:51.595Z,89.90
2023-02-07T13:13:31.361Z,81.60
2023-02-07T13:16:20.051Z,80.60
2023-02-07T13:19:11.748Z,85.20
2023-02-07T13:21:54.616Z,86.00
2023-02-07T13:24:27.286Z,83.90
2023-02-07T13:27:03.861Z,79.90
2023-02-07T13:29:35.670Z,76.90
2023-02-07T13:32:12.846Z,76.80
2023-02-07T13:35:01.344Z,78.50
2023-02-07T13:37:50.111Z,81.00
2023-02-07T13:40:37.507Z,91.60
2023-02-07T13:43:24.017Z,82.10
2023-02-07T13:46:32.009Z,84.50
2023-02-07T13:49:09.775Z,77.10
2023-02-07T13:52:10.955Z,86.30
2023-02-07T13:54:51.443Z,93.20
2023-02-07T13:57:58.670Z,92.60
2023-02-07T14:00:57.882Z,92.60
2023-02-07T14:03:32.802Z,91.00
2023-02-07T14:06:26.413Z,85.40
2023-02-07T14:08:59.800Z,91.30
2023-02-07T14:12:15.581Z,93.90
2023-02-07T14:15:01.752Z,87.70
2023-02-07T14:17:33.442Z,75.50
2023-02-07T14:20:05.657Z,89.90
2023-02-07T14:22:43.659Z,83.50
2023-02-07T14:25:35.896Z,77.90
2023-02-07T14:28:06.398Z,86.60
2023-02-07T14:30:57.309Z,85.60
2023-02-07T14:33:33.918Z,84.30
2023-02-07T14:36:14.887Z,90.00
2023-02-07T14:39:07.220Z,89.00
2023-02-07T14:41:40.395Z,91.90
2023-02-07T14:44:21.168Z,101.30
2023-02-07T14:46:55.961Z,92.40
2023-02-07T14:49:50.199Z,91.60
2023-02-07T14:52:29.213Z,91.50
2023-02-07T14:55:09.392Z,93.90
2023-02-07T14:57:50.268Z,117.30
2023-02-07T15:00:26.924Z,122.60
2023-02-07T15:03:05.112Z,116.00
2023-02-07T15:05:37.626Z,119.30
2023-02-07T15:08:27.511Z,97.90
2023-02-07T15:11:02.659Z,103.30
2023-02-07T15:13:42.328Z,89.20
2023-02-07T15:16:18.147Z,105.00
2023-02-07T15:18:50.149Z,96.50
2023-02-07T15:21:22.886Z,101.60
2023-02-07T15:23:59.173Z,103.60
2023-02-07T15:26:27.592Z,100.30
2023-02-07T15:29:06.180Z,100.00
2023-02-07T15:31:40.166Z,109.90
2023-02-07T15:34:15.793Z,112.40
2023-02-07T15:36:46.815Z,113.30
2023-02-07T15:39:23.668Z,101.80
2023-02-07T15:41:54.756Z,106.70
2023-02-07T15:44:30.050Z,112.60
2023-02-07T15:47:28.515Z,107.30
2023-02-07T15:50:03.526Z,129.60
2023-02-07T15:52:43.292Z,122.10
2023-02-07T15:55:44.863Z,125.00
2023-02-07T15:58:36.058Z,117.40
2023-02-07T16:01:23.032Z,126.00
2023-02-07T16:03:54.768Z,117.20
2023-02-07T16:06:28.533Z,120.10
2023-02-07T16:09:00.350Z,122.60
2023-02-07T16:11:31.627Z,112.20
2023-02-07T16:14:00.079Z,119.20
2023-02-07T16:16:34.320Z,116.90
2023-02-07T16:19:07.288Z,118.90
2023-02-07T16:21:37.524Z,124.30
2023-02-07T16:24:11.867Z,235.60
2023-02-07T16:26:41.031Z,745.60
2023-02-07T16:29:18.723Z,414.70
2023-02-07T16:31:47.937Z,162.10
2023-02-07T16:34:18.855Z,143.60
2023-02-07T16:36:55.476Z,141.00
2023-02-07T16:39:23.953Z,128.90
2023-02-07T16:41:57.016Z,180.10
2023-02-07T16:44:28.455Z,144.40
2023-02-07T16:46:57.683Z,113.60
2023-02-07T16:49:28.136Z,123.40
2023-02-07T16:51:57.747Z,132.90
2023-02-07T16:54:27.960Z,129.20
2023-02-07T16:57:03.523Z,135.30
2023-02-07T16:59:33.203Z,130.90
2023-02-07T17:02:01.694Z,143.40
2023-02-07T17:04:30.118Z,131.90
2023-02-07T17:06:58.499Z,152.00
2023-02-07T17:09:26.941Z,134.90
2023-02-07T17:11:55.424Z,144.20
2023-02-07T17:14:23.789Z,160.80
2023-02-07T17:16:52.189Z,169.00
2023-02-07T17:19:24.160Z,166.00
2023-02-07T17:21:52.837Z,178.70
2023-02-07T17:24:21.184Z,179.40
2023-02-07T17:26:52.833Z,181.30
2023-02-07T17:29:22.380Z,175.30
2023-02-07T17:31:51.087Z,154.10
2023-02-07T17:34:19.530Z,158.50
2023-02-07T17:36:49.986Z,327.60
2023-02-07T17:39:19.519Z,185.80
2023-02-07T17:41:48.940Z,204.60
2023-02-07T17:44:21.666Z,183.10
2023-02-07T17:46:50.356Z,312.40
2023-02-07T17:49:18.834Z,291.50
2023-02-07T17:51:47.228Z,230.10
2023-02-07T17:54:17.717Z,227.40
2023-02-07T17:56:46.051Z,235.70
2023-02-07T17:59:24.959Z,207.30
2023-02-07T18:01:53.747Z,144.30
2023-02-07T18:04:22.172Z,148.70
2023-02-07T18:06:50.645Z,159.40
2023-02-07T18:09:20.138Z,162.40
2023-02-07T18:11:49.368Z,158.90
2023-02-07T18:14:18.194Z,140.40
2023-02-07T18:16:46.844Z,157.90
2023-02-07T18:19:17.395Z,151.50
2023-02-07T18:21:46.485Z,157.70
2023-02-07T18:24:16.449Z,148.80
2023-02-07T18:26:46.550Z,160.00
2023-02-07T18:29:15.035Z,165.60
2023-02-07T18:31:43.784Z,158.90
2023-02-07T18:34:12.288Z,176.70
2023-02-07T18:36:41.046Z,290.20
2023-02-07T18:39:11.249Z,211.40
2023-02-07T18:41:40.261Z,258.40
2023-02-07T18:44:11.945Z,190.70
2023-02-07T18:46:40.357Z,194.50
2023-02-07T18:49:12.498Z,519.30
2023-02-07T18:51:40.981Z,199.70
2023-02-07T18:54:09.460Z,175.40
2023-02-07T18:56:38.035Z,260.60
2023-02-07T18:59:06.441Z,197.90
2023-02-07T19:01:37.731Z,170.30
2023-02-07T19:04:06.358Z,571.90
2023-02-07T19:06:34.868Z,231.40
2023-02-07T19:09:03.648Z,176.50
2023-02-07T19:11:33.187Z,652.10
2023-02-07T19:14:02.740Z,188.40
2023-02-07T19:16:32.366Z,173.50
2023-02-07T19:19:03.689Z,176.00
2023-02-07T19:21:36.722Z,316.90
2023-02-07T19:24:18.402Z,194.30
2023-02-07T19:26:49.380Z,184.20
2023-02-07T19:29:24.785Z,193.00
2023-02-07T19:31:53.480Z,334.60
2023-02-07T19:34:21.821Z,253.80
2023-02-07T19:36:50.428Z,319.40
2023-02-07T19:39:19.587Z,477.70
2023-02-07T19:41:48.889Z,407.30
2023-02-07T19:44:17.557Z,289.60
2023-02-07T19:46:46.270Z,232.30
2023-02-07T19:49:15.784Z,193.30
2023-02-07T19:51:44.186Z,190.20
2023-02-07T19:54:12.700Z,187.80
2023-02-07T19:56:42.431Z,178.40
2023-02-07T19:59:10.993Z,169.90
2023-02-07T20:01:39.446Z,171.90
2023-02-07T20:04:07.982Z,180.80
2023-02-07T20:06:39.297Z,165.70
2023-02-07T20:09:08.451Z,192.20
2023-02-07T20:11:36.921Z,175.30
2023-02-07T20:14:06.967Z,195.20
2023-02-07T20:16:39.032Z,169.00
2023-02-07T20:19:08.319Z,169.30
2023-02-07T20:21:37.635Z,171.00
2023-02-07T20:24:08.615Z,180.80
2023-02-07T20:26:42.931Z,182.90
2023-02-07T20:29:15.015Z,202.40
2023-02-07T20:31:45.562Z,225.60
2023-02-07T20:34:16.066Z,221.50
2023-02-07T20:36:45.308Z,211.40
2023-02-07T20:39:17.811Z,201.70
2023-02-07T20:41:50.616Z,204.30
2023-02-07T20:44:26.904Z,181.80
2023-02-07T20:47:00.676Z,196.40
2023-02-07T20:49:32.419Z,203.30
2023-02-07T20:52:01.301Z,203.20
2023-02-07T20:54:33.575Z,175.70
2023-02-07T20:57:02.198Z,186.70
2023-02-07T20:59:33.091Z,184.50
2023-02-07T21:02:05.009Z,179.50
2023-02-07T21:04:38.459Z,175.00
2023-02-07T21:07:07.047Z,169.80
2023-02-07T21:09:35.620Z,169.00
2023-02-07T21:12:04.417Z,185.70
2023-02-07T21:14:34.340Z,166.90
2023-02-07T21:17:59.162Z,176.80
2023-02-07T21:20:27.627Z,170.40
2023-02-07T21:22:56.506Z,157.30
2023-02-07T21:25:24.875Z,170.10
2023-02-07T21:27:53.167Z,154.80
2023-02-07T21:30:21.481Z,175.30
2023-02-07T21:32:49.824Z,155.50
2023-02-07T21:35:18.241Z,157.60
2023-02-07T21:37:47.814Z,160.90
2023-02-07T21:40:18.666Z,143.60
2023-02-07T21:42:47.933Z,192.50
2023-02-07T21:45:16.300Z,183.70
2023-02-07T21:47:44.630Z,164.40
2023-02-07T21:50:13.181Z,155.50
2023-02-07T21:52:41.456Z,173.20
2023-02-07T21:55:09.758Z,173.90
2023-02-07T21:57:38.309Z,192.00
2023-02-07T22:00:08.309Z,175.80
2023-02-07T22:02:37.953Z,164.90
2023-02-07T22:05:06.712Z,163.20
2023-02-07T22:07:35.203Z,170.30
2023-02-07T22:10:04.348Z,212.00
2023-02-07T22:12:32.725Z,184.30
2023-02-07T22:15:01.060Z,178.90
2023-02-07T22:17:29.478Z,186.60
2023-02-07T22:19:58.128Z,167.10
2023-02-07T22:22:26.545Z,173.80
2023-02-07T22:24:55.035Z,163.10
2023-02-07T22:27:23.544Z,170.70
2023-02-07T22:29:51.988Z,176.60
2023-02-07T22:32:20.440Z,164.80
2023-02-07T22:34:48.824Z,155.80
2023-02-07T22:37:17.133Z,163.70
2023-02-07T22:39:45.621Z,149.10
2023-02-07T22:42:14.067Z,152.00
2023-02-07T22:44:42.495Z,153.00
2023-02-07T22:47:13.003Z,167.20
2023-02-07T22:49:41.319Z,153.40
2023-02-07T22:52:12.223Z,139.90
2023-02-07T22:54:40.728Z,128.40
2023-02-07T22:57:13.513Z,138.90
2023-02-07T22:59:43.037Z,125.90
2023-02-07T23:02:12.000Z,146.60
2023-02-07T23:04:40.569Z,152.30
2023-02-07T23:07:09.025Z,153.10
2023-02-07T23:09:37.442Z,153.20
2023-02-07T23:12:06.216Z,191.60
2023-02-07T23:14:35.127Z,151.30
2023-02-07T23:17:03.460Z,134.50
2023-02-07T23:19:31.833Z,171.40
2023-02-07T23:22:00.613Z,162.60
2023-02-07T23:24:29.118Z,204.60
2023-02-07T23:26:57.420Z,171.20
2023-02-07T23:29:26.206Z,140.60
2023-02-07T23:31:54.607Z,134.40
2023-02-07T23:34:22.908Z,134.70
2023-02-07T23:36:51.422Z,142.80
2023-02-07T23:39:20.930Z,165.40
2023-02-07T23:41:49.693Z,173.20
2023-02-07T23:44:18.124Z,179.60
2023-02-07T23:46:46.626Z,192.80
2023-02-07T23:49:14.884Z,170.20
2023-02-07T23:51:43.478Z,185.20
2023-02-07T23:54:13.141Z,147.90
2023-02-07T23:56:41.669Z,158.90
2023-02-07T23:59:12.028Z,153.40
